createdAt,value
2023-01-18T08:12:56.851Z,37.85
2023-01-18T13:20:47.495Z,41.83
2023-01-18T13:21:47.469Z,43.04
2023-01-18T13:22:47.445Z,39.21
2023-01-18T13:23:47.402Z,38.72
2023-01-18T13:24:47.389Z,38.65
2023-01-18T13:25:47.334Z,38.60
2023-01-18T13:26:47.323Z,38.75
2023-01-18T13:27:47.269Z,38.61
2023-01-18T13:28:47.242Z,38.24
2023-01-18T13:29:47.201Z,37.91
2023-01-18T13:30:47.167Z,37.53
2023-01-18T13:31:47.122Z,37.52
2023-01-18T13:32:47.110Z,37.77
2023-01-18T13:33:47.048Z,37.60
2023-01-18T13:34:48.783Z,37.45
2023-01-18T13:35:46.973Z,37.49
2023-01-18T13:36:46.974Z,37.41
2023-01-18T13:37:46.908Z,37.23
2023-01-18T13:38:46.889Z,37.05
2023-01-18T13:39:46.882Z,37.01
2023-01-18T13:40:46.814Z,37.02
2023-01-18T13:41:46.785Z,36.90
2023-01-18T13:42:46.791Z,36.81
2023-01-18T13:43:46.715Z,36.68
2023-01-18T13:44:46.681Z,36.51
2023-01-18T13:45:46.774Z,35.72
2023-01-18T13:46:46.667Z,35.92
2023-01-18T13:47:46.619Z,36.09
2023-01-18T13:48:46.611Z,35.88
2023-01-18T13:49:46.543Z,35.77
2023-01-18T13:50:46.513Z,35.81
2023-01-18T13:51:46.497Z,35.53
2023-01-18T13:52:46.454Z,35.57
2023-01-18T13:53:46.426Z,35.54
2023-01-18T13:54:46.888Z,35.51
2023-01-18T13:55:46.364Z,35.42
2023-01-18T13:56:46.318Z,35.51
2023-01-18T13:57:46.299Z,35.49
2023-01-18T13:58:46.316Z,35.53
2023-01-18T13:59:46.227Z,35.49
2023-01-18T14:00:46.249Z,35.37
2023-01-18T14:01:46.260Z,35.42
2023-01-18T14:02:46.199Z,35.35
2023-01-18T14:03:46.349Z,35.28
2023-01-18T14:04:46.200Z,35.23
2023-01-18T14:05:46.213Z,35.15
2023-01-18T14:06:46.214Z,35.19
2023-01-18T14:07:46.220Z,35.13
2023-01-18T14:08:46.233Z,35.07
2023-01-18T14:09:46.256Z,34.99
2023-01-18T14:10:46.250Z,34.96
2023-01-18T14:11:46.246Z,34.91
2023-01-18T14:12:46.264Z,34.83
2023-01-18T14:13:46.300Z,34.81
2023-01-18T14:14:46.275Z,34.78
2023-01-18T14:15:46.317Z,34.74
2023-01-18T14:16:46.360Z,34.73
2023-01-18T14:17:57.941Z,34.71
2023-01-18T14:24:46.107Z,34.61
2023-01-18T14:25:46.090Z,34.55
2023-01-18T14:26:46.047Z,34.62
2023-01-18T14:27:46.023Z,34.60
2023-01-18T14:28:45.989Z,34.57
2023-01-18T14:29:45.952Z,34.53
2023-01-18T14:30:45.949Z,34.46
2023-01-18T14:31:45.956Z,34.49
2023-01-18T14:32:46.001Z,34.48
2023-01-18T14:33:46.014Z,34.44
2023-01-18T14:34:46.026Z,34.41
2023-01-18T14:35:46.069Z,34.43
2023-01-18T14:36:46.088Z,34.37
2023-01-18T14:37:46.127Z,34.37
2023-01-18T14:38:46.146Z,34.37
2023-01-18T14:39:46.158Z,34.33
2023-01-18T14:40:46.199Z,34.32
2023-01-18T14:41:46.221Z,34.32
2023-01-18T14:42:46.244Z,34.33
2023-01-18T14:43:46.282Z,34.33
2023-01-18T14:44:57.745Z,34.29
2023-01-18T14:45:47.299Z,34.28
2023-01-18T14:46:47.935Z,34.29
2023-01-18T14:47:46.241Z,34.25
2023-01-18T14:48:46.221Z,34.28
2023-01-18T14:49:46.208Z,34.29
2023-01-18T14:50:46.155Z,34.27
2023-01-18T14:51:46.136Z,34.25
2023-01-18T14:52:46.119Z,34.28
2023-01-18T14:53:46.087Z,34.28
2023-01-18T14:54:46.060Z,34.24
2023-01-18T14:55:46.050Z,34.26
2023-01-18T14:56:46.026Z,34.28
2023-01-18T14:57:46.256Z,34.22
2023-01-18T14:58:45.968Z,34.26
2023-01-18T14:59:45.951Z,34.20
2023-01-18T15:00:46.063Z,34.16
2023-01-18T15:01:45.970Z,34.16
2023-01-18T15:02:45.924Z,34.12
2023-01-18T15:03:45.846Z,34.08
2023-01-18T15:04:45.845Z,34.08
2023-01-18T15:05:45.804Z,34.08
2023-01-18T15:06:45.807Z,34.08
2023-01-18T15:07:45.781Z,34.05
2023-01-18T15:08:45.746Z,34.06
2023-01-18T15:09:45.741Z,34.05
2023-01-18T15:10:45.716Z,34.05
2023-01-18T15:11:45.698Z,34.06
2023-01-18T15:12:45.671Z,34.11
2023-01-18T15:13:45.671Z,34.02
2023-01-18T15:14:45.647Z,34.06
2023-01-18T15:15:45.624Z,34.00
2023-01-18T15:16:45.588Z,34.01
2023-01-18T15:17:45.565Z,34.01
2023-01-18T15:18:45.542Z,34.14
2023-01-18T15:19:45.523Z,34.32
2023-01-18T15:31:45.550Z,34.93
2023-01-18T15:32:45.552Z,34.46
2023-01-18T15:33:45.583Z,34.38
2023-01-18T15:34:45.604Z,34.25
2023-01-18T15:35:47.971Z,34.23
2023-01-18T15:36:45.604Z,34.29
2023-01-18T15:37:45.593Z,34.32
2023-01-18T15:38:45.567Z,34.36
2023-01-18T15:39:45.541Z,34.40
2023-01-18T15:40:45.533Z,34.49
2023-01-18T15:42:45.502Z,34.66
2023-01-18T15:43:45.470Z,34.76
2023-01-18T15:44:45.429Z,34.88
2023-01-18T15:45:45.451Z,34.80
2023-01-18T15:46:45.381Z,34.73
2023-01-18T15:47:45.353Z,34.80
2023-01-18T15:48:45.748Z,34.75
2023-01-18T15:49:45.304Z,34.64
2023-01-18T15:50:45.287Z,34.63
2023-01-18T15:51:45.267Z,34.69
2023-01-18T15:52:45.533Z,34.62
2023-01-18T15:53:45.204Z,34.69
2023-01-18T16:22:45.495Z,28.52
2023-01-18T16:23:45.532Z,28.30
2023-01-18T16:24:45.572Z,28.11
2023-01-18T16:25:45.599Z,27.63
2023-01-18T16:26:45.637Z,27.55
2023-01-18T16:27:45.669Z,27.94
2023-01-18T16:28:45.715Z,30.00
2023-01-18T16:29:45.759Z,30.96
2023-01-18T16:30:45.820Z,31.40
2023-01-18T16:31:45.859Z,31.66
2023-01-18T16:32:45.907Z,31.80
2023-01-18T16:33:45.953Z,31.91
2023-01-18T16:34:46.008Z,31.97
2023-01-18T16:52:46.876Z,33.15
2023-01-18T16:53:46.864Z,33.15
2023-01-18T16:54:46.966Z,33.18
2023-01-18T16:55:46.939Z,33.19
2023-01-18T16:56:46.999Z,33.24
2023-01-18T16:57:47.043Z,33.29
2023-01-18T16:58:47.082Z,33.26
2023-01-18T16:59:47.149Z,33.30
2023-01-18T17:00:47.196Z,33.29
2023-01-18T17:01:47.346Z,33.32
2023-01-18T17:02:47.320Z,33.35
2023-01-18T17:03:47.295Z,33.38
2023-01-18T17:04:47.344Z,33.39
2023-01-18T17:06:47.408Z,33.41
2023-01-18T17:07:47.469Z,33.41
2023-01-18T17:08:47.512Z,33.42
2023-01-18T17:09:49.009Z,33.43
2023-01-18T17:10:47.594Z,33.45
2023-01-18T17:11:47.637Z,33.46
2023-01-18T17:12:47.736Z,33.47
2023-01-18T17:13:47.819Z,33.51
2023-01-18T17:14:47.776Z,33.52
2023-01-18T17:15:47.802Z,33.51
2023-01-18T17:16:47.860Z,33.52
2023-01-18T17:17:47.908Z,33.51
2023-01-18T17:18:47.961Z,33.50
2023-01-18T17:19:47.959Z,33.52
2023-01-18T17:20:47.981Z,33.55
2023-01-18T17:21:48.023Z,33.53
2023-01-18T17:22:48.064Z,33.56
2023-01-18T17:23:48.088Z,33.55
2023-01-18T17:24:48.117Z,33.54
2023-01-18T17:25:48.133Z,33.57
2023-01-18T17:26:48.163Z,33.57
2023-01-18T17:27:48.179Z,33.56
2023-01-18T20:49:55.513Z,33.19
2023-01-18T20:50:55.546Z,33.20
2023-01-18T20:51:55.586Z,33.21
2023-01-18T20:52:55.643Z,33.21
2023-01-18T20:53:55.732Z,33.21
2023-01-18T20:54:55.746Z,33.23
2023-01-18T20:55:55.804Z,33.23
2023-01-18T20:56:55.851Z,33.23
2023-01-18T20:57:55.896Z,33.20
2023-01-18T20:58:55.956Z,33.23
2023-01-18T20:59:56.002Z,33.20
2023-01-18T21:00:56.233Z,33.22
2023-01-18T21:01:56.257Z,33.22
2023-01-18T21:02:56.215Z,33.24
2023-01-18T21:03:56.188Z,33.23
2023-01-18T21:04:56.304Z,33.22
2023-01-18T21:05:56.278Z,33.23
2023-01-18T21:06:56.308Z,33.22
2023-01-18T21:07:56.370Z,33.25
2023-01-18T21:08:56.489Z,33.24
2023-01-18T21:09:56.440Z,33.24
2023-01-18T21:10:56.498Z,33.24
2023-01-18T21:11:56.534Z,33.24
2023-01-18T21:12:56.592Z,33.24
2023-01-18T21:13:56.640Z,33.23
2023-01-18T21:14:56.669Z,33.24
2023-01-18T21:15:56.722Z,33.25
2023-01-18T21:16:56.821Z,33.25
2023-01-18T21:17:57.685Z,33.24
2023-01-18T21:18:56.865Z,33.24
2023-01-18T21:19:56.909Z,33.24
2023-01-18T21:20:56.968Z,33.23
2023-01-18T21:21:57.030Z,33.23
2023-01-18T21:22:57.053Z,33.24
2023-01-18T21:23:57.120Z,33.22
2023-01-18T21:24:57.311Z,33.20
2023-01-18T21:25:57.205Z,33.22
2023-01-18T21:26:57.251Z,33.22
2023-01-18T21:27:57.834Z,33.21
2023-01-18T21:28:57.353Z,33.23
2023-01-18T21:29:57.985Z,33.23
2023-01-18T21:30:57.420Z,33.21
2023-01-18T21:31:57.538Z,33.20
2023-01-18T21:32:57.537Z,33.20
2023-01-18T21:33:57.586Z,33.20
2023-01-18T21:34:57.631Z,33.20
2023-01-18T21:35:57.665Z,33.19
2023-01-18T21:36:57.723Z,33.20
2023-01-18T21:37:58.130Z,33.20
2023-01-18T21:38:57.825Z,33.23
2023-01-18T22:15:59.615Z,33.13
2023-01-18T23:15:01.863Z,33.08
2023-01-18T23:27:02.290Z,33.04
2023-01-18T23:35:02.567Z,33.01
2023-01-18T23:50:02.859Z,32.94
2023-01-18T23:55:02.872Z,32.98
2023-01-18T23:56:02.875Z,32.96
2023-01-18T23:57:02.899Z,32.97
2023-01-18T23:58:03.249Z,32.95
2023-01-18T23:59:02.939Z,32.97
